Impacts METAR Board
IDs:

KSLC - Salt Lake City Intl, UT, US

Updated at: 0300 UTC 22 Jun 2018
Potential Impact None Slight Moderate High
Time 21/15Z 21/16Z 21/17Z 21/18Z 21/19Z 21/20Z 21/21Z 21/22Z 21/23Z 22/00Z 22/01Z 22/02Z 22/03Z
Temp75 79 83 86 90 90 91 91 92 91 90 88 83
Dewpt45 43 41 39 42 40 39 33 29 23 23 23 33
Altim30.03 30.03 30.02 30.02 30.01 30.01 30.00 30.00 29.98 29.96 29.95 29.95 29.95
VIS10 10 10 10 10 10 10 10 10 10 10 10 10
CIG-- -- -- -- -- -- -- -- -- -- -- -- --
CoverSCTSCTFEWFEWFEWFEWSCTFEWFEWFEWFEWFEWSCT
FltCatVFRVFRVFRVFRVFRVFRVFRVFRVFRVFRVFRVFRVFR
WX--------------------------
WDir13011000360340320350340340360360360
WSpd6 4 6 0 9 13 16 13 12 14 14 10 6
WGst-- -- -- -- -- 20 22 17 16 -- -- -- --
Raw hourly METARs
KSLC 211454Z 13006KT 10SM FEW100 FEW160 SCT240 24/07 A3003 RMK AO2 SLP115 TCU DSNT NE T02390072 50005
KSLC 211554Z 11004KT 10SM FEW120 SCT200 26/06 A3003 RMK AO2 SLP112 T02610061 $
KSLC 211654Z COR VRB06KT 10SM FEW200 FEW250 28/05 A3002 RMK AO2 SLP107 T02830050 $
KSLC 211754Z COR 00000KT 10SM FEW110 FEW160 FEW230 30/04 A3002 RMK AO2 SLPNO ACSL DSNT NE-SE 10306 20194 55003 $
KSLC 211854Z 36009KT 10SM FEW095 FEW230 32/06 A3001 RMK AO2 SLP103 TCU DSNT SE AND S T03220056 $
KSLC 211954Z 34013G20KT 10SM FEW095TCU FEW230 32/04 A3001 RMK AO2 SLP102 TCU S AND DSNT N AND E T03220044 VISNO NW RNWY $
KSLC 212054Z 32016G22KT 10SM FEW095 FEW190 SCT240 33/04 A3000 RMK AO2 SLP100 TCU DSNT N-NE AND SE AND NW T03280039 56006 $
KSLC 212154Z 35013G17KT 10SM FEW090 FEW200 FEW240 33/01 A3000 RMK AO2 SLP098 T03280006
KSLC 212254Z 34012G16KT 10SM FEW090 FEW210 33/M02 A2998 RMK AO2 SLP095 T03331017
KSLC 212354Z 34014KT 10SM FEW095 33/M05 A2996 RMK AO2 SLP087 T03281050 58013
KSLC 220054Z 36014KT 10SM FEW100 32/M05 A2995 RMK AO2 SLP081 T03221050
KSLC 220154Z 36010KT 10SM FEW130 FEW220 31/M05 A2995 RMK AO2 SLP080 T03111050
KSLC 220254Z 36006KT 10SM FEW130 SCT220 28/01 A2995 RMK AO2 SLP082 T02830006 55004



Page loaded:  03:10 UTC  |   08:10 PM Pacific  |   09:10 PM Mountain  |   10:10 PM Central  |   11:10 PM Eastern

 

ADVISORIES

FORECASTS

FORECASTS

OBSERVATIONS

USER TOOLS

ABOUT US